sensor_id;sensor_type;location;lat;lon;timestamp;P1;durP1;ratioP1;P2;durP2;ratioP2
43345;SDS011;28937;51.160;4.146;2023-06-05T00:01:11;4.65;;;2.60;;
43345;SDS011;28937;51.160;4.146;2023-06-05T00:03:37;3.67;;;2.05;;
43345;SDS011;28937;51.160;4.146;2023-06-05T00:06:04;5.43;;;2.58;;
43345;SDS011;28937;51.160;4.146;2023-06-05T00:08:30;6.63;;;2.38;;
43345;SDS011;28937;51.160;4.146;2023-06-05T00:10:55;5.70;;;1.95;;
43345;SDS011;28937;51.160;4.146;2023-06-05T00:13:21;5.80;;;2.50;;
43345;SDS011;28937;51.160;4.146;2023-06-05T00:15:46;4.28;;;2.58;;
43345;SDS011;28937;51.160;4.146;2023-06-05T00:18:12;4.32;;;2.38;;
43345;SDS011;28937;51.160;4.146;2023-06-05T00:20:39;4.10;;;2.20;;
43345;SDS011;28937;51.160;4.146;2023-06-05T00:23:05;11.18;;;2.65;;
43345;SDS011;28937;51.160;4.146;2023-06-05T00:25:30;4.47;;;2.70;;
43345;SDS011;28937;51.160;4.146;2023-06-05T00:27:56;5.70;;;2.72;;
43345;SDS011;28937;51.160;4.146;2023-06-05T00:30:21;4.47;;;2.53;;
43345;SDS011;28937;51.160;4.146;2023-06-05T00:32:47;7.03;;;2.67;;
43345;SDS011;28937;51.160;4.146;2023-06-05T00:35:12;5.68;;;2.65;;
43345;SDS011;28937;51.160;4.146;2023-06-05T00:37:38;9.40;;;2.95;;
43345;SDS011;28937;51.160;4.146;2023-06-05T00:40:04;5.20;;;2.83;;
43345;SDS011;28937;51.160;4.146;2023-06-05T00:42:31;6.30;;;2.60;;
43345;SDS011;28937;51.160;4.146;2023-06-05T00:44:57;5.55;;;2.67;;
43345;SDS011;28937;51.160;4.146;2023-06-05T00:47:22;5.40;;;2.50;;
43345;SDS011;28937;51.160;4.146;2023-06-05T00:49:48;5.32;;;3.08;;
43345;SDS011;28937;51.160;4.146;2023-06-05T00:52:14;4.63;;;2.83;;
43345;SDS011;28937;51.160;4.146;2023-06-05T00:54:41;4.38;;;2.53;;
43345;SDS011;28937;51.160;4.146;2023-06-05T00:57:07;5.65;;;2.83;;
43345;SDS011;28937;51.160;4.146;2023-06-05T00:59:33;7.00;;;2.50;;
43345;SDS011;28937;51.160;4.146;2023-06-05T01:02:00;4.60;;;2.45;;
43345;SDS011;28937;51.160;4.146;2023-06-05T01:04:27;4.57;;;3.05;;
43345;SDS011;28937;51.160;4.146;2023-06-05T01:06:57;5.90;;;2.85;;
43345;SDS011;28937;51.160;4.146;2023-06-05T01:09:24;4.55;;;2.28;;
43345;SDS011;28937;51.160;4.146;2023-06-05T01:11:52;5.70;;;2.67;;
43345;SDS011;28937;51.160;4.146;2023-06-05T01:14:27;5.43;;;3.15;;
43345;SDS011;28937;51.160;4.146;2023-06-05T01:16:56;6.82;;;2.90;;
43345;SDS011;28937;51.160;4.146;2023-06-05T01:19:26;4.65;;;2.80;;
43345;SDS011;28937;51.160;4.146;2023-06-05T01:21:57;6.72;;;2.88;;
43345;SDS011;28937;51.160;4.146;2023-06-05T01:24:23;5.50;;;2.97;;
43345;SDS011;28937;51.160;4.146;2023-06-05T01:27:07;4.47;;;3.15;;
43345;SDS011;28937;51.160;4.146;2023-06-05T01:35:09;5.50;;;3.05;;
43345;SDS011;28937;51.160;4.146;2023-06-05T01:37:36;4.35;;;2.83;;
43345;SDS011;28937;51.160;4.146;2023-06-05T01:40:15;5.10;;;2.58;;
43345;SDS011;28937;51.160;4.146;2023-06-05T01:42:43;5.53;;;2.97;;
43345;SDS011;28937;51.160;4.146;2023-06-05T01:45:09;7.95;;;3.03;;
43345;SDS011;28937;51.160;4.146;2023-06-05T01:47:37;6.40;;;2.65;;
43345;SDS011;28937;51.160;4.146;2023-06-05T01:50:04;6.70;;;3.35;;
43345;SDS011;28937;51.160;4.146;2023-06-05T01:52:31;7.72;;;3.08;;
43345;SDS011;28937;51.160;4.146;2023-06-05T01:54:57;6.05;;;2.70;;
43345;SDS011;28937;51.160;4.146;2023-06-05T01:57:26;6.28;;;3.03;;
43345;SDS011;28937;51.160;4.146;2023-06-05T01:59:52;5.93;;;2.88;;
43345;SDS011;28937;51.160;4.146;2023-06-05T02:02:19;4.35;;;3.00;;
43345;SDS011;28937;51.160;4.146;2023-06-05T02:04:44;5.60;;;3.20;;
43345;SDS011;28937;51.160;4.146;2023-06-05T02:07:12;7.38;;;3.20;;
43345;SDS011;28937;51.160;4.146;2023-06-05T02:09:39;4.28;;;2.85;;
43345;SDS011;28937;51.160;4.146;2023-06-05T02:12:08;4.65;;;3.10;;
43345;SDS011;28937;51.160;4.146;2023-06-05T02:14:33;5.47;;;3.25;;
43345;SDS011;28937;51.160;4.146;2023-06-05T02:17:02;4.68;;;3.38;;
43345;SDS011;28937;51.160;4.146;2023-06-05T02:19:31;6.88;;;3.20;;
43345;SDS011;28937;51.160;4.146;2023-06-05T02:21:57;5.50;;;3.10;;
43345;SDS011;28937;51.160;4.146;2023-06-05T02:24:23;5.85;;;3.47;;
43345;SDS011;28937;51.160;4.146;2023-06-05T02:26:50;5.30;;;3.38;;
43345;SDS011;28937;51.160;4.146;2023-06-05T02:29:15;4.78;;;3.10;;
43345;SDS011;28937;51.160;4.146;2023-06-05T02:31:41;7.85;;;2.65;;
43345;SDS011;28937;51.160;4.146;2023-06-05T02:34:06;5.10;;;3.50;;
43345;SDS011;28937;51.160;4.146;2023-06-05T02:36:32;5.88;;;3.20;;
43345;SDS011;28937;51.160;4.146;2023-06-05T02:39:01;7.78;;;3.50;;
43345;SDS011;28937;51.160;4.146;2023-06-05T02:41:29;6.73;;;3.20;;
43345;SDS011;28937;51.160;4.146;2023-06-05T02:43:55;6.72;;;3.25;;
43345;SDS011;28937;51.160;4.146;2023-06-05T02:46:21;5.22;;;3.42;;
43345;SDS011;28937;51.160;4.146;2023-06-05T02:48:47;7.00;;;3.17;;
43345;SDS011;28937;51.160;4.146;2023-06-05T02:51:13;7.03;;;3.47;;
43345;SDS011;28937;51.160;4.146;2023-06-05T02:53:38;7.70;;;3.55;;
43345;SDS011;28937;51.160;4.146;2023-06-05T02:56:04;5.03;;;3.20;;
43345;SDS011;28937;51.160;4.146;2023-06-05T02:58:30;6.53;;;3.67;;
43345;SDS011;28937;51.160;4.146;2023-06-05T03:00:58;5.38;;;3.55;;
43345;SDS011;28937;51.160;4.146;2023-06-05T03:03:30;8.70;;;3.60;;
43345;SDS011;28937;51.160;4.146;2023-06-05T03:05:57;5.13;;;3.30;;
43345;SDS011;28937;51.160;4.146;2023-06-05T03:08:33;5.65;;;3.22;;
43345;SDS011;28937;51.160;4.146;2023-06-05T03:11:00;4.97;;;3.58;;
43345;SDS011;28937;51.160;4.146;2023-06-05T03:13:26;6.00;;;3.47;;
43345;SDS011;28937;51.160;4.146;2023-06-05T03:15:52;7.75;;;3.25;;
43345;SDS011;28937;51.160;4.146;2023-06-05T03:18:18;7.85;;;3.80;;
43345;SDS011;28937;51.160;4.146;2023-06-05T03:20:45;5.88;;;3.80;;
43345;SDS011;28937;51.160;4.146;2023-06-05T03:23:12;7.20;;;3.72;;
43345;SDS011;28937;51.160;4.146;2023-06-05T03:25:38;5.72;;;3.55;;
43345;SDS011;28937;51.160;4.146;2023-06-05T03:28:03;6.50;;;3.58;;
43345;SDS011;28937;51.160;4.146;2023-06-05T03:30:29;6.63;;;3.47;;
43345;SDS011;28937;51.160;4.146;2023-06-05T03:32:55;6.25;;;3.85;;
43345;SDS011;28937;51.160;4.146;2023-06-05T03:35:20;5.07;;;3.35;;
43345;SDS011;28937;51.160;4.146;2023-06-05T03:37:46;5.70;;;3.85;;
43345;SDS011;28937;51.160;4.146;2023-06-05T03:40:11;6.18;;;3.92;;
43345;SDS011;28937;51.160;4.146;2023-06-05T03:42:37;6.00;;;4.22;;
43345;SDS011;28937;51.160;4.146;2023-06-05T03:45:03;8.70;;;4.22;;
43345;SDS011;28937;51.160;4.146;2023-06-05T03:47:29;6.30;;;4.20;;
43345;SDS011;28937;51.160;4.146;2023-06-05T03:49:54;7.80;;;4.40;;
43345;SDS011;28937;51.160;4.146;2023-06-05T03:52:21;5.25;;;4.30;;
43345;SDS011;28937;51.160;4.146;2023-06-05T03:54:49;5.35;;;4.80;;
43345;SDS011;28937;51.160;4.146;2023-06-05T03:57:19;8.55;;;4.80;;
43345;SDS011;28937;51.160;4.146;2023-06-05T03:59:45;6.57;;;4.28;;
43345;SDS011;28937;51.160;4.146;2023-06-05T04:02:12;8.23;;;4.28;;
43345;SDS011;28937;51.160;4.146;2023-06-05T04:04:37;7.55;;;4.47;;
43345;SDS011;28937;51.160;4.146;2023-06-05T04:07:03;10.13;;;4.63;;
43345;SDS011;28937;51.160;4.146;2023-06-05T04:09:30;9.38;;;5.10;;
43345;SDS011;28937;51.160;4.146;2023-06-05T04:11:56;5.75;;;4.20;;
43345;SDS011;28937;51.160;4.146;2023-06-05T04:14:22;6.32;;;4.30;;
43345;SDS011;28937;51.160;4.146;2023-06-05T04:16:48;7.95;;;4.63;;
43345;SDS011;28937;51.160;4.146;2023-06-05T04:19:14;6.68;;;4.10;;
43345;SDS011;28937;51.160;4.146;2023-06-05T04:21:40;6.88;;;4.25;;
43345;SDS011;28937;51.160;4.146;2023-06-05T04:24:06;7.03;;;4.28;;
43345;SDS011;28937;51.160;4.146;2023-06-05T04:26:34;5.72;;;4.38;;
43345;SDS011;28937;51.160;4.146;2023-06-05T04:29:01;6.97;;;4.90;;
43345;SDS011;28937;51.160;4.146;2023-06-05T04:31:31;6.93;;;4.88;;
43345;SDS011;28937;51.160;4.146;2023-06-05T04:33:57;5.80;;;4.50;;
43345;SDS011;28937;51.160;4.146;2023-06-05T04:36:24;7.07;;;4.65;;
43345;SDS011;28937;51.160;4.146;2023-06-05T04:38:52;7.38;;;4.65;;
43345;SDS011;28937;51.160;4.146;2023-06-05T04:41:18;9.02;;;5.13;;
43345;SDS011;28937;51.160;4.146;2023-06-05T04:43:43;6.22;;;4.35;;
43345;SDS011;28937;51.160;4.146;2023-06-05T04:46:09;9.40;;;4.78;;
43345;SDS011;28937;51.160;4.146;2023-06-05T04:48:34;6.90;;;4.93;;
43345;SDS011;28937;51.160;4.146;2023-06-05T04:51:01;5.40;;;4.72;;
43345;SDS011;28937;51.160;4.146;2023-06-05T04:53:28;10.45;;;5.07;;
43345;SDS011;28937;51.160;4.146;2023-06-05T04:55:53;7.03;;;5.03;;
43345;SDS011;28937;51.160;4.146;2023-06-05T04:58:20;6.68;;;4.82;;
43345;SDS011;28937;51.160;4.146;2023-06-05T05:00:46;6.65;;;4.93;;
43345;SDS011;28937;51.160;4.146;2023-06-05T05:03:14;6.45;;;4.57;;
43345;SDS011;28937;51.160;4.146;2023-06-05T05:05:41;6.97;;;5.20;;
43345;SDS011;28937;51.160;4.146;2023-06-05T05:08:06;7.38;;;5.07;;
43345;SDS011;28937;51.160;4.146;2023-06-05T05:10:32;11.70;;;5.50;;
43345;SDS011;28937;51.160;4.146;2023-06-05T05:12:58;6.57;;;5.95;;
43345;SDS011;28937;51.160;4.146;2023-06-05T05:15:27;8.15;;;5.30;;
43345;SDS011;28937;51.160;4.146;2023-06-05T05:17:54;9.18;;;5.63;;
43345;SDS011;28937;51.160;4.146;2023-06-05T05:20:22;13.20;;;5.50;;
43345;SDS011;28937;51.160;4.146;2023-06-05T05:22:47;12.35;;;6.45;;
43345;SDS011;28937;51.160;4.146;2023-06-05T05:25:13;12.45;;;6.63;;
43345;SDS011;28937;51.160;4.146;2023-06-05T05:27:39;9.27;;;6.10;;
43345;SDS011;28937;51.160;4.146;2023-06-05T05:30:05;8.90;;;6.20;;
43345;SDS011;28937;51.160;4.146;2023-06-05T05:32:32;7.60;;;5.38;;
43345;SDS011;28937;51.160;4.146;2023-06-05T05:34:57;8.20;;;6.18;;
43345;SDS011;28937;51.160;4.146;2023-06-05T05:37:23;9.38;;;6.13;;
43345;SDS011;28937;51.160;4.146;2023-06-05T05:39:50;6.72;;;5.70;;
43345;SDS011;28937;51.160;4.146;2023-06-05T05:42:16;10.25;;;5.22;;
43345;SDS011;28937;51.160;4.146;2023-06-05T05:44:42;8.73;;;5.10;;
43345;SDS011;28937;51.160;4.146;2023-06-05T05:47:09;10.38;;;5.35;;
43345;SDS011;28937;51.160;4.146;2023-06-05T05:49:35;5.88;;;5.18;;
43345;SDS011;28937;51.160;4.146;2023-06-05T05:52:00;5.47;;;4.78;;
43345;SDS011;28937;51.160;4.146;2023-06-05T05:54:26;6.47;;;5.20;;
43345;SDS011;28937;51.160;4.146;2023-06-05T05:56:52;9.48;;;4.68;;
43345;SDS011;28937;51.160;4.146;2023-06-05T05:59:21;6.20;;;4.90;;
43345;SDS011;28937;51.160;4.146;2023-06-05T06:01:47;6.28;;;5.47;;
43345;SDS011;28937;51.160;4.146;2023-06-05T06:04:13;8.05;;;5.82;;
43345;SDS011;28937;51.160;4.146;2023-06-05T06:06:41;6.15;;;4.60;;
43345;SDS011;28937;51.160;4.146;2023-06-05T06:09:07;8.40;;;5.30;;
43345;SDS011;28937;51.160;4.146;2023-06-05T06:11:33;7.95;;;5.28;;
43345;SDS011;28937;51.160;4.146;2023-06-05T06:14:01;6.30;;;4.80;;
43345;SDS011;28937;51.160;4.146;2023-06-05T06:16:27;6.60;;;4.90;;
43345;SDS011;28937;51.160;4.146;2023-06-05T06:18:52;6.32;;;5.15;;
43345;SDS011;28937;51.160;4.146;2023-06-05T06:21:20;8.45;;;4.60;;
43345;SDS011;28937;51.160;4.146;2023-06-05T06:23:45;6.85;;;5.00;;
43345;SDS011;28937;51.160;4.146;2023-06-05T06:26:12;7.22;;;4.70;;
43345;SDS011;28937;51.160;4.146;2023-06-05T06:28:39;6.88;;;5.07;;
43345;SDS011;28937;51.160;4.146;2023-06-05T06:31:05;8.00;;;5.50;;
43345;SDS011;28937;51.160;4.146;2023-06-05T06:33:31;7.70;;;5.13;;
43345;SDS011;28937;51.160;4.146;2023-06-05T06:35:57;6.93;;;4.70;;
43345;SDS011;28937;51.160;4.146;2023-06-05T06:38:25;7.68;;;4.78;;
43345;SDS011;28937;51.160;4.146;2023-06-05T06:40:56;8.18;;;4.60;;
43345;SDS011;28937;51.160;4.146;2023-06-05T06:43:22;7.13;;;4.85;;
43345;SDS011;28937;51.160;4.146;2023-06-05T06:45:48;9.70;;;4.97;;
43345;SDS011;28937;51.160;4.146;2023-06-05T06:48:15;7.32;;;4.40;;
43345;SDS011;28937;51.160;4.146;2023-06-05T06:50:45;8.55;;;4.75;;
43345;SDS011;28937;51.160;4.146;2023-06-05T06:53:11;6.68;;;4.68;;
43345;SDS011;28937;51.160;4.146;2023-06-05T06:55:36;6.75;;;5.07;;
43345;SDS011;28937;51.160;4.146;2023-06-05T06:58:03;7.43;;;4.50;;
43345;SDS011;28937;51.160;4.146;2023-06-05T07:00:30;7.47;;;4.93;;
43345;SDS011;28937;51.160;4.146;2023-06-05T07:02:55;8.40;;;5.43;;
43345;SDS011;28937;51.160;4.146;2023-06-05T07:05:21;7.82;;;5.15;;
43345;SDS011;28937;51.160;4.146;2023-06-05T07:07:47;8.57;;;4.68;;
43345;SDS011;28937;51.160;4.146;2023-06-05T07:10:13;6.75;;;4.28;;
43345;SDS011;28937;51.160;4.146;2023-06-05T07:12:38;7.40;;;5.32;;
43345;SDS011;28937;51.160;4.146;2023-06-05T07:15:04;8.00;;;4.88;;
43345;SDS011;28937;51.160;4.146;2023-06-05T07:17:30;9.32;;;5.13;;
43345;SDS011;28937;51.160;4.146;2023-06-05T07:19:56;6.85;;;4.57;;
43345;SDS011;28937;51.160;4.146;2023-06-05T07:22:22;6.97;;;4.75;;
43345;SDS011;28937;51.160;4.146;2023-06-05T07:24:49;7.75;;;5.13;;
43345;SDS011;28937;51.160;4.146;2023-06-05T07:27:15;6.75;;;5.38;;
43345;SDS011;28937;51.160;4.146;2023-06-05T07:29:41;5.53;;;5.03;;
43345;SDS011;28937;51.160;4.146;2023-06-05T07:32:07;8.55;;;4.53;;
43345;SDS011;28937;51.160;4.146;2023-06-05T07:34:32;8.20;;;4.88;;
43345;SDS011;28937;51.160;4.146;2023-06-05T07:36:59;7.18;;;4.80;;
43345;SDS011;28937;51.160;4.146;2023-06-05T07:39:25;7.85;;;4.82;;
43345;SDS011;28937;51.160;4.146;2023-06-05T07:41:51;7.50;;;4.82;;
43345;SDS011;28937;51.160;4.146;2023-06-05T07:44:18;6.82;;;4.97;;
43345;SDS011;28937;51.160;4.146;2023-06-05T07:46:46;9.30;;;5.40;;
43345;SDS011;28937;51.160;4.146;2023-06-05T07:49:13;7.45;;;5.05;;
43345;SDS011;28937;51.160;4.146;2023-06-05T07:51:40;9.65;;;4.95;;
43345;SDS011;28937;51.160;4.146;2023-06-05T07:54:07;6.32;;;4.30;;
43345;SDS011;28937;51.160;4.146;2023-06-05T07:56:34;6.85;;;4.10;;
43345;SDS011;28937;51.160;4.146;2023-06-05T07:59:00;6.60;;;5.07;;
43345;SDS011;28937;51.160;4.146;2023-06-05T08:01:28;7.93;;;5.10;;
43345;SDS011;28937;51.160;4.146;2023-06-05T08:03:54;7.10;;;4.35;;
43345;SDS011;28937;51.160;4.146;2023-06-05T08:06:20;7.32;;;4.88;;
43345;SDS011;28937;51.160;4.146;2023-06-05T08:08:46;7.85;;;4.78;;
43345;SDS011;28937;51.160;4.146;2023-06-05T08:11:11;7.40;;;5.32;;
43345;SDS011;28937;51.160;4.146;2023-06-05T08:13:37;6.80;;;4.50;;
43345;SDS011;28937;51.160;4.146;2023-06-05T08:16:04;7.82;;;3.97;;
43345;SDS011;28937;51.160;4.146;2023-06-05T08:18:30;5.72;;;4.50;;
43345;SDS011;28937;51.160;4.146;2023-06-05T08:20:56;4.57;;;3.58;;
43345;SDS011;28937;51.160;4.146;2023-06-05T08:23:21;5.38;;;3.53;;
43345;SDS011;28937;51.160;4.146;2023-06-05T08:25:47;9.75;;;5.05;;
43345;SDS011;28937;51.160;4.146;2023-06-05T08:28:13;5.72;;;3.38;;
43345;SDS011;28937;51.160;4.146;2023-06-05T08:30:40;10.85;;;5.05;;
43345;SDS011;28937;51.160;4.146;2023-06-05T08:33:06;7.40;;;5.07;;
43345;SDS011;28937;51.160;4.146;2023-06-05T08:35:31;6.38;;;4.95;;
43345;SDS011;28937;51.160;4.146;2023-06-05T08:37:57;4.93;;;4.05;;
43345;SDS011;28937;51.160;4.146;2023-06-05T08:40:25;10.38;;;5.85;;
43345;SDS011;28937;51.160;4.146;2023-06-05T08:42:53;6.32;;;3.10;;
43345;SDS011;28937;51.160;4.146;2023-06-05T08:45:19;7.70;;;4.72;;
43345;SDS011;28937;51.160;4.146;2023-06-05T08:47:45;8.00;;;4.60;;
43345;SDS011;28937;51.160;4.146;2023-06-05T08:50:15;6.30;;;3.90;;
43345;SDS011;28937;51.160;4.146;2023-06-05T08:52:42;11.45;;;4.43;;
43345;SDS011;28937;51.160;4.146;2023-06-05T08:55:08;5.15;;;3.85;;
43345;SDS011;28937;51.160;4.146;2023-06-05T08:57:35;80.95;;;9.40;;
43345;SDS011;28937;51.160;4.146;2023-06-05T09:00:04;8.60;;;3.85;;
43345;SDS011;28937;51.160;4.146;2023-06-05T09:02:40;5.72;;;3.63;;
43345;SDS011;28937;51.160;4.146;2023-06-05T09:05:11;8.55;;;3.55;;
43345;SDS011;28937;51.160;4.146;2023-06-05T09:07:38;6.28;;;4.90;;
43345;SDS011;28937;51.160;4.146;2023-06-05T09:10:04;4.90;;;3.80;;
43345;SDS011;28937;51.160;4.146;2023-06-05T09:12:32;7.85;;;3.83;;
43345;SDS011;28937;51.160;4.146;2023-06-05T09:15:23;8.98;;;4.05;;
43345;SDS011;28937;51.160;4.146;2023-06-05T09:20:38;9.65;;;5.10;;
43345;SDS011;28937;51.160;4.146;2023-06-05T09:23:21;6.55;;;3.40;;
43345;SDS011;28937;51.160;4.146;2023-06-05T09:25:50;8.10;;;4.50;;
43345;SDS011;28937;51.160;4.146;2023-06-05T09:28:16;7.93;;;5.03;;
43345;SDS011;28937;51.160;4.146;2023-06-05T09:31:24;8.70;;;4.32;;
43345;SDS011;28937;51.160;4.146;2023-06-05T09:33:31;9.13;;;3.70;;
43345;SDS011;28937;51.160;4.146;2023-06-05T09:36:02;10.73;;;5.03;;
43345;SDS011;28937;51.160;4.146;2023-06-05T09:38:28;5.32;;;3.63;;
43345;SDS011;28937;51.160;4.146;2023-06-05T09:41:01;11.32;;;5.88;;
43345;SDS011;28937;51.160;4.146;2023-06-05T09:43:28;7.55;;;4.10;;
43345;SDS011;28937;51.160;4.146;2023-06-05T09:45:53;8.95;;;3.45;;
43345;SDS011;28937;51.160;4.146;2023-06-05T09:48:19;8.85;;;5.20;;
43345;SDS011;28937;51.160;4.146;2023-06-05T09:50:45;9.85;;;5.35;;
43345;SDS011;28937;51.160;4.146;2023-06-05T09:53:10;8.80;;;5.97;;
43345;SDS011;28937;51.160;4.146;2023-06-05T09:55:39;7.85;;;3.80;;
43345;SDS011;28937;51.160;4.146;2023-06-05T09:58:05;8.27;;;4.03;;
43345;SDS011;28937;51.160;4.146;2023-06-05T10:00:36;8.80;;;4.88;;
43345;SDS011;28937;51.160;4.146;2023-06-05T10:03:05;12.32;;;4.47;;
43345;SDS011;28937;51.160;4.146;2023-06-05T10:05:38;9.98;;;4.05;;
43345;SDS011;28937;51.160;4.146;2023-06-05T10:08:07;10.48;;;5.93;;
43345;SDS011;28937;51.160;4.146;2023-06-05T10:10:35;9.80;;;6.10;;
43345;SDS011;28937;51.160;4.146;2023-06-05T10:13:02;10.40;;;6.00;;
43345;SDS011;28937;51.160;4.146;2023-06-05T10:15:28;13.07;;;5.43;;
43345;SDS011;28937;51.160;4.146;2023-06-05T10:17:56;10.02;;;6.25;;
43345;SDS011;28937;51.160;4.146;2023-06-05T10:20:22;8.23;;;5.05;;
43345;SDS011;28937;51.160;4.146;2023-06-05T10:22:48;12.57;;;5.45;;
43345;SDS011;28937;51.160;4.146;2023-06-05T10:25:15;6.65;;;5.78;;
43345;SDS011;28937;51.160;4.146;2023-06-05T10:38:49;11.15;;;5.57;;
43345;SDS011;28937;51.160;4.146;2023-06-05T10:41:16;9.68;;;5.53;;
43345;SDS011;28937;51.160;4.146;2023-06-05T10:43:47;11.05;;;5.72;;
43345;SDS011;28937;51.160;4.146;2023-06-05T10:46:27;8.63;;;7.05;;
43345;SDS011;28937;51.160;4.146;2023-06-05T10:54:08;9.00;;;5.75;;
43345;SDS011;28937;51.160;4.146;2023-06-05T10:59:16;8.63;;;4.97;;
43345;SDS011;28937;51.160;4.146;2023-06-05T11:01:45;7.50;;;6.78;;
43345;SDS011;28937;51.160;4.146;2023-06-05T11:10:10;8.18;;;5.43;;
43345;SDS011;28937;51.160;4.146;2023-06-05T11:15:06;8.50;;;5.07;;
43345;SDS011;28937;51.160;4.146;2023-06-05T11:20:03;6.72;;;5.43;;
43345;SDS011;28937;51.160;4.146;2023-06-05T11:27:50;8.93;;;5.78;;
43345;SDS011;28937;51.160;4.146;2023-06-05T11:30:18;6.93;;;5.00;;
43345;SDS011;28937;51.160;4.146;2023-06-05T11:32:48;8.63;;;6.17;;
43345;SDS011;28937;51.160;4.146;2023-06-05T11:35:20;6.03;;;4.43;;
43345;SDS011;28937;51.160;4.146;2023-06-05T11:37:46;8.27;;;5.25;;
43345;SDS011;28937;51.160;4.146;2023-06-05T11:40:18;7.85;;;7.05;;
43345;SDS011;28937;51.160;4.146;2023-06-05T11:42:49;6.95;;;5.18;;
43345;SDS011;28937;51.160;4.146;2023-06-05T11:45:15;6.75;;;4.70;;
43345;SDS011;28937;51.160;4.146;2023-06-05T11:47:40;4.82;;;2.90;;
43345;SDS011;28937;51.160;4.146;2023-06-05T11:50:07;10.95;;;6.07;;
43345;SDS011;28937;51.160;4.146;2023-06-05T11:52:36;6.72;;;5.90;;
43345;SDS011;28937;51.160;4.146;2023-06-05T11:55:15;7.25;;;5.45;;
43345;SDS011;28937;51.160;4.146;2023-06-05T11:57:45;7.95;;;6.03;;
43345;SDS011;28937;51.160;4.146;2023-06-05T12:00:14;8.88;;;3.88;;
43345;SDS011;28937;51.160;4.146;2023-06-05T12:02:47;7.40;;;3.65;;
43345;SDS011;28937;51.160;4.146;2023-06-05T12:05:14;11.30;;;5.47;;
43345;SDS011;28937;51.160;4.146;2023-06-05T12:07:40;11.52;;;6.95;;
43345;SDS011;28937;51.160;4.146;2023-06-05T12:10:07;6.90;;;5.30;;
43345;SDS011;28937;51.160;4.146;2023-06-05T12:12:34;6.38;;;5.43;;
43345;SDS011;28937;51.160;4.146;2023-06-05T12:15:13;11.05;;;6.20;;
43345;SDS011;28937;51.160;4.146;2023-06-05T12:17:40;7.95;;;6.82;;
43345;SDS011;28937;51.160;4.146;2023-06-05T12:20:05;6.90;;;4.80;;
43345;SDS011;28937;51.160;4.146;2023-06-05T12:22:34;10.15;;;6.57;;
43345;SDS011;28937;51.160;4.146;2023-06-05T12:25:21;7.65;;;5.22;;
43345;SDS011;28937;51.160;4.146;2023-06-05T12:27:47;5.32;;;3.30;;
43345;SDS011;28937;51.160;4.146;2023-06-05T12:30:17;8.73;;;4.95;;
43345;SDS011;28937;51.160;4.146;2023-06-05T12:32:44;9.40;;;6.43;;
43345;SDS011;28937;51.160;4.146;2023-06-05T12:35:22;7.78;;;5.80;;
43345;SDS011;28937;51.160;4.146;2023-06-05T12:37:49;5.05;;;4.47;;
43345;SDS011;28937;51.160;4.146;2023-06-05T12:40:16;7.18;;;4.45;;
43345;SDS011;28937;51.160;4.146;2023-06-05T12:42:46;6.10;;;3.22;;
43345;SDS011;28937;51.160;4.146;2023-06-05T12:45:13;6.68;;;3.90;;
43345;SDS011;28937;51.160;4.146;2023-06-05T12:47:40;6.80;;;4.40;;
43345;SDS011;28937;51.160;4.146;2023-06-05T12:50:07;6.75;;;4.22;;
43345;SDS011;28937;51.160;4.146;2023-06-05T12:52:37;9.50;;;6.43;;
43345;SDS011;28937;51.160;4.146;2023-06-05T12:55:03;5.80;;;4.05;;
43345;SDS011;28937;51.160;4.146;2023-06-05T12:57:30;9.20;;;4.90;;
43345;SDS011;28937;51.160;4.146;2023-06-05T12:59:57;9.90;;;4.18;;
43345;SDS011;28937;51.160;4.146;2023-06-05T13:02:22;9.48;;;5.60;;
43345;SDS011;28937;51.160;4.146;2023-06-05T13:04:48;6.07;;;3.90;;
43345;SDS011;28937;51.160;4.146;2023-06-05T13:07:14;5.80;;;5.03;;
43345;SDS011;28937;51.160;4.146;2023-06-05T13:09:41;4.28;;;3.53;;
43345;SDS011;28937;51.160;4.146;2023-06-05T13:12:07;6.70;;;4.18;;
43345;SDS011;28937;51.160;4.146;2023-06-05T13:14:33;6.95;;;3.47;;
43345;SDS011;28937;51.160;4.146;2023-06-05T13:17:00;8.45;;;4.70;;
43345;SDS011;28937;51.160;4.146;2023-06-05T13:19:26;7.25;;;3.28;;
43345;SDS011;28937;51.160;4.146;2023-06-05T13:21:51;8.63;;;3.22;;
43345;SDS011;28937;51.160;4.146;2023-06-05T13:24:17;6.63;;;3.70;;
43345;SDS011;28937;51.160;4.146;2023-06-05T13:26:43;7.13;;;3.10;;
43345;SDS011;28937;51.160;4.146;2023-06-05T13:29:10;11.55;;;4.70;;
43345;SDS011;28937;51.160;4.146;2023-06-05T13:31:36;5.60;;;3.60;;
43345;SDS011;28937;51.160;4.146;2023-06-05T13:34:02;5.07;;;3.05;;
43345;SDS011;28937;51.160;4.146;2023-06-05T13:36:28;5.47;;;3.08;;
43345;SDS011;28937;51.160;4.146;2023-06-05T13:38:53;4.88;;;3.40;;
43345;SDS011;28937;51.160;4.146;2023-06-05T13:41:19;10.20;;;4.47;;
43345;SDS011;28937;51.160;4.146;2023-06-05T13:43:46;4.10;;;3.38;;
43345;SDS011;28937;51.160;4.146;2023-06-05T13:46:12;4.50;;;2.85;;
43345;SDS011;28937;51.160;4.146;2023-06-05T13:48:38;4.18;;;2.53;;
43345;SDS011;28937;51.160;4.146;2023-06-05T13:51:04;7.07;;;2.78;;
43345;SDS011;28937;51.160;4.146;2023-06-05T13:53:30;3.47;;;2.75;;
43345;SDS011;28937;51.160;4.146;2023-06-05T13:56:05;5.32;;;2.75;;
43345;SDS011;28937;51.160;4.146;2023-06-05T13:58:31;3.50;;;2.58;;
43345;SDS011;28937;51.160;4.146;2023-06-05T14:00:58;5.30;;;3.13;;
43345;SDS011;28937;51.160;4.146;2023-06-05T14:03:24;8.82;;;2.88;;
43345;SDS011;28937;51.160;4.146;2023-06-05T14:05:50;7.82;;;4.18;;
43345;SDS011;28937;51.160;4.146;2023-06-05T14:08:15;5.28;;;3.08;;
43345;SDS011;28937;51.160;4.146;2023-06-05T14:10:41;7.50;;;4.03;;
43345;SDS011;28937;51.160;4.146;2023-06-05T14:13:07;6.53;;;3.35;;
43345;SDS011;28937;51.160;4.146;2023-06-05T14:15:33;4.82;;;3.38;;
43345;SDS011;28937;51.160;4.146;2023-06-05T14:18:00;7.18;;;4.00;;
43345;SDS011;28937;51.160;4.146;2023-06-05T14:20:27;6.93;;;3.33;;
43345;SDS011;28937;51.160;4.146;2023-06-05T14:22:55;7.22;;;3.80;;
43345;SDS011;28937;51.160;4.146;2023-06-05T14:25:21;7.05;;;4.07;;
43345;SDS011;28937;51.160;4.146;2023-06-05T14:27:47;5.68;;;2.97;;
43345;SDS011;28937;51.160;4.146;2023-06-05T14:30:14;4.78;;;2.90;;
43345;SDS011;28937;51.160;4.146;2023-06-05T14:32:39;4.10;;;2.95;;
43345;SDS011;28937;51.160;4.146;2023-06-05T14:35:06;5.80;;;3.15;;
43345;SDS011;28937;51.160;4.146;2023-06-05T14:37:32;10.63;;;3.60;;
43345;SDS011;28937;51.160;4.146;2023-06-05T14:39:57;4.28;;;2.45;;
43345;SDS011;28937;51.160;4.146;2023-06-05T14:42:23;3.85;;;3.42;;
43345;SDS011;28937;51.160;4.146;2023-06-05T14:44:50;6.25;;;3.65;;
43345;SDS011;28937;51.160;4.146;2023-06-05T14:47:18;5.40;;;3.78;;
43345;SDS011;28937;51.160;4.146;2023-06-05T14:49:44;4.95;;;3.92;;
43345;SDS011;28937;51.160;4.146;2023-06-05T14:52:09;11.25;;;4.10;;
43345;SDS011;28937;51.160;4.146;2023-06-05T14:54:35;7.88;;;3.38;;
43345;SDS011;28937;51.160;4.146;2023-06-05T14:57:01;5.65;;;3.85;;
43345;SDS011;28937;51.160;4.146;2023-06-05T14:59:26;6.90;;;3.58;;
43345;SDS011;28937;51.160;4.146;2023-06-05T15:01:52;6.88;;;3.47;;
43345;SDS011;28937;51.160;4.146;2023-06-05T15:04:17;4.85;;;3.53;;
43345;SDS011;28937;51.160;4.146;2023-06-05T15:06:43;8.75;;;3.65;;
43345;SDS011;28937;51.160;4.146;2023-06-05T15:09:08;6.88;;;2.88;;
43345;SDS011;28937;51.160;4.146;2023-06-05T15:11:35;8.15;;;3.70;;
43345;SDS011;28937;51.160;4.146;2023-06-05T15:14:00;9.45;;;4.03;;
43345;SDS011;28937;51.160;4.146;2023-06-05T15:16:26;6.20;;;3.78;;
43345;SDS011;28937;51.160;4.146;2023-06-05T15:18:52;6.55;;;3.15;;
43345;SDS011;28937;51.160;4.146;2023-06-05T15:21:17;6.57;;;3.30;;
43345;SDS011;28937;51.160;4.146;2023-06-05T15:23:43;9.23;;;4.63;;
43345;SDS011;28937;51.160;4.146;2023-06-05T15:26:09;17.45;;;4.60;;
43345;SDS011;28937;51.160;4.146;2023-06-05T15:28:34;7.70;;;3.85;;